createdAt,value
2022-07-27T00:02:07.152Z,14.73
2022-07-27T00:04:34.867Z,14.71
2022-07-27T00:07:02.762Z,14.76
2022-07-27T00:09:30.315Z,14.74
2022-07-27T00:11:57.900Z,14.78
2022-07-27T00:14:26.994Z,14.79
2022-07-27T00:16:54.570Z,14.77
2022-07-27T00:19:23.801Z,14.80
2022-07-27T00:21:51.383Z,14.79
2022-07-27T00:24:19.089Z,14.78
2022-07-27T00:26:46.682Z,14.80
2022-07-27T00:29:14.694Z,14.82
2022-07-27T00:31:44.149Z,14.82
2022-07-27T00:34:11.920Z,14.83
2022-07-27T00:36:39.487Z,14.83
2022-07-27T00:39:07.060Z,14.85
2022-07-27T00:41:34.749Z,14.82
2022-07-27T00:44:05.144Z,14.87
2022-07-27T00:46:32.768Z,14.82
2022-07-27T00:49:01.865Z,14.81
2022-07-27T00:51:29.581Z,14.81
2022-07-27T00:53:57.774Z,14.82
2022-07-27T00:56:25.648Z,14.86
2022-07-27T00:58:54.488Z,14.78
2022-07-27T01:01:22.682Z,14.77
2022-07-27T01:03:50.343Z,14.66
2022-07-27T01:06:26.852Z,14.68
2022-07-27T01:09:16.859Z,14.73
2022-07-27T01:11:44.853Z,14.74
2022-07-27T01:14:13.745Z,14.76
2022-07-27T01:16:41.843Z,14.72
2022-07-27T01:19:10.739Z,14.65
2022-07-27T01:21:40.149Z,14.67
2022-07-27T01:24:08.586Z,14.63
2022-07-27T01:26:36.693Z,14.58
2022-07-27T01:29:04.414Z,14.53
2022-07-27T01:31:32.487Z,14.45
2022-07-27T01:34:01.016Z,14.48
2022-07-27T01:36:28.666Z,14.48
2022-07-27T01:38:58.090Z,14.48
2022-07-27T01:41:26.476Z,14.45
2022-07-27T01:43:54.064Z,14.44
2022-07-27T01:46:21.688Z,14.46
2022-07-27T01:48:49.346Z,14.37
2022-07-27T01:51:16.926Z,14.42
2022-07-27T01:53:44.636Z,14.44
2022-07-27T01:56:15.002Z,14.42
2022-07-27T01:58:43.768Z,14.40
2022-07-27T02:01:11.470Z,14.38
2022-07-27T02:03:39.502Z,14.34
2022-07-27T02:06:07.963Z,14.29
2022-07-27T02:08:36.934Z,14.33
2022-07-27T02:11:22.819Z,14.32
2022-07-27T02:13:51.754Z,14.32
2022-07-27T02:16:20.409Z,14.27
2022-07-27T02:18:49.023Z,14.24
2022-07-27T02:21:16.974Z,14.21
2022-07-27T02:23:46.795Z,14.19
2022-07-27T02:26:14.512Z,14.17
2022-07-27T02:28:42.269Z,14.17
2022-07-27T02:31:11.635Z,14.19
2022-07-27T02:33:39.228Z,14.22
2022-07-27T02:36:06.942Z,14.23
2022-07-27T02:38:34.531Z,14.24
2022-07-27T02:41:02.102Z,14.26
2022-07-27T02:43:31.721Z,14.26
2022-07-27T02:45:59.366Z,14.24
2022-07-27T02:48:28.330Z,14.24
2022-07-27T02:51:00.331Z,14.22
2022-07-27T02:53:27.952Z,14.24
2022-07-27T02:55:55.528Z,14.24
2022-07-27T02:58:23.613Z,14.26
2022-07-27T03:00:57.850Z,14.30
2022-07-27T03:03:36.018Z,14.34
2022-07-27T03:06:06.685Z,14.38
2022-07-27T03:08:34.473Z,14.37
2022-07-27T03:11:02.110Z,14.35
2022-07-27T03:13:29.955Z,14.34
2022-07-27T03:15:58.218Z,14.36
2022-07-27T03:18:26.047Z,14.41
2022-07-27T03:20:53.626Z,14.43
2022-07-27T03:23:22.561Z,14.43
2022-07-27T03:25:50.132Z,14.43
2022-07-27T03:28:17.721Z,14.37
2022-07-27T03:30:45.360Z,14.34
2022-07-27T03:33:12.985Z,14.34
2022-07-27T03:35:40.573Z,14.32
2022-07-27T03:38:08.161Z,14.37
2022-07-27T03:40:40.868Z,14.38
2022-07-27T03:43:08.717Z,14.38
2022-07-27T03:45:36.465Z,14.40
2022-07-27T03:48:04.216Z,14.41
2022-07-27T03:50:31.838Z,14.38
2022-07-27T03:52:59.427Z,14.39
2022-07-27T03:55:27.593Z,14.35
2022-07-27T03:57:56.726Z,14.33
2022-07-27T04:00:24.481Z,14.30
2022-07-27T04:02:53.467Z,14.26
2022-07-27T04:05:21.739Z,14.19
2022-07-27T04:07:49.921Z,14.17
2022-07-27T04:10:22.898Z,14.20
2022-07-27T04:12:50.547Z,14.25
2022-07-27T04:15:21.391Z,14.25
2022-07-27T04:17:55.151Z,14.24
2022-07-27T04:20:24.251Z,14.16
2022-07-27T04:22:51.828Z,14.25
2022-07-27T04:25:19.445Z,14.20
2022-07-27T04:27:47.143Z,14.22
2022-07-27T04:30:15.100Z,14.36
2022-07-27T04:32:44.043Z,14.40
2022-07-27T04:35:12.081Z,14.50
2022-07-27T04:37:40.016Z,14.67
2022-07-27T04:40:25.474Z,14.87
2022-07-27T04:42:53.030Z,14.98
2022-07-27T04:45:20.739Z,15.10
2022-07-27T04:47:49.683Z,15.37
2022-07-27T04:50:17.524Z,15.31
2022-07-27T04:52:45.234Z,15.31
2022-07-27T04:55:13.383Z,15.25
2022-07-27T04:57:41.929Z,15.31
2022-07-27T05:00:11.815Z,15.18
2022-07-27T05:02:40.744Z,15.15
2022-07-27T05:05:11.334Z,15.11
2022-07-27T05:07:38.907Z,15.13
2022-07-27T05:10:07.090Z,15.17
2022-07-27T05:12:34.667Z,15.16
2022-07-27T05:15:02.257Z,15.12
2022-07-27T05:17:29.845Z,15.03
2022-07-27T05:19:57.440Z,15.04
2022-07-27T05:22:26.348Z,14.95
2022-07-27T05:24:54.269Z,15.04
2022-07-27T05:27:21.939Z,15.06
2022-07-27T05:29:49.848Z,15.24
2022-07-27T05:32:17.539Z,15.41
2022-07-27T05:34:46.023Z,15.47
2022-07-27T05:37:14.042Z,15.72
2022-07-27T05:39:43.406Z,15.84
2022-07-27T05:42:11.102Z,15.96
2022-07-27T05:44:38.706Z,16.17
2022-07-27T05:47:06.562Z,15.98
2022-07-27T05:49:34.281Z,16.08
2022-07-27T05:52:01.973Z,16.16
2022-07-27T05:54:29.522Z,16.12
2022-07-27T05:56:59.857Z,15.87
2022-07-27T05:59:28.057Z,15.90
2022-07-27T06:01:55.891Z,15.67
2022-07-27T06:04:23.482Z,15.56
2022-07-27T06:07:08.503Z,15.56
2022-07-27T06:09:36.106Z,15.50
2022-07-27T06:12:05.344Z,15.68
2022-07-27T06:14:33.533Z,15.73
2022-07-27T06:17:01.181Z,15.93
2022-07-27T06:19:36.173Z,16.16
2022-07-27T06:22:04.450Z,16.11
2022-07-27T06:24:32.032Z,16.15
2022-07-27T06:26:59.622Z,16.16
2022-07-27T06:29:28.649Z,16.50
2022-07-27T06:31:56.296Z,16.33
2022-07-27T06:34:23.940Z,16.45
2022-07-27T06:36:52.902Z,16.43
2022-07-27T06:39:20.971Z,16.53
2022-07-27T06:41:48.946Z,16.83
2022-07-27T06:44:16.533Z,17.05
2022-07-27T06:46:45.547Z,17.19
2022-07-27T06:49:13.691Z,17.33
2022-07-27T06:51:41.745Z,17.59
2022-07-27T06:54:09.397Z,18.27
2022-07-27T06:56:36.995Z,18.35
2022-07-27T06:59:04.671Z,18.63
2022-07-27T07:01:32.321Z,18.72
2022-07-27T07:04:01.359Z,18.57
2022-07-27T07:06:28.994Z,19.05
2022-07-27T07:08:56.574Z,18.94
2022-07-27T07:11:24.174Z,18.16
2022-07-27T07:13:51.761Z,17.78
2022-07-27T07:16:19.421Z,17.61
2022-07-27T07:18:52.024Z,16.86
2022-07-27T07:21:21.941Z,16.44
2022-07-27T07:23:50.130Z,16.39
2022-07-27T07:26:17.689Z,16.34
2022-07-27T07:28:45.290Z,16.07
2022-07-27T07:31:12.958Z,16.07
2022-07-27T07:33:40.597Z,16.08
2022-07-27T07:36:12.182Z,16.01
2022-07-27T07:38:43.262Z,15.94
2022-07-27T07:41:10.995Z,15.98
2022-07-27T07:43:39.741Z,16.03
2022-07-27T07:46:08.597Z,16.17
2022-07-27T07:48:36.426Z,16.19
2022-07-27T07:51:04.245Z,16.38
2022-07-27T07:53:31.910Z,16.26
2022-07-27T07:56:00.853Z,15.95
2022-07-27T07:58:28.771Z,16.01
2022-07-27T08:00:56.344Z,15.98
2022-07-27T08:03:24.078Z,15.94
2022-07-27T08:05:51.811Z,16.00
2022-07-27T08:08:19.382Z,16.10
2022-07-27T08:10:47.914Z,16.13
2022-07-27T08:13:21.848Z,16.11
2022-07-27T08:15:50.398Z,15.89
2022-07-27T08:18:17.974Z,16.00
2022-07-27T08:20:45.940Z,16.19
2022-07-27T08:23:13.720Z,16.18
2022-07-27T08:25:42.359Z,16.30
2022-07-27T08:28:10.180Z,16.46
2022-07-27T08:30:39.158Z,16.70
2022-07-27T08:33:07.413Z,16.96
2022-07-27T08:35:36.186Z,17.58
2022-07-27T08:38:06.704Z,18.01
2022-07-27T08:40:45.190Z,18.45
2022-07-27T08:43:21.872Z,18.74
2022-07-27T08:45:58.169Z,19.01
2022-07-27T08:48:27.534Z,19.09
2022-07-27T08:50:55.141Z,19.01
2022-07-27T08:53:23.478Z,18.90
2022-07-27T08:55:51.586Z,19.16
2022-07-27T08:58:19.412Z,19.49
2022-07-27T09:00:49.678Z,19.47
2022-07-27T09:03:21.518Z,19.63
2022-07-27T09:05:52.173Z,19.49
2022-07-27T09:08:23.975Z,19.62
2022-07-27T09:10:52.671Z,19.20
2022-07-27T09:13:23.335Z,18.52
2022-07-27T09:16:16.713Z,18.08
2022-07-27T09:18:42.984Z,18.07
2022-07-27T09:21:12.797Z,18.49
2022-07-27T09:23:41.689Z,18.53
2022-07-27T09:26:31.066Z,18.78
2022-07-27T09:29:02.403Z,18.70
2022-07-27T09:31:30.491Z,18.52
2022-07-27T09:34:01.355Z,18.72
2022-07-27T09:36:31.385Z,18.43
2022-07-27T09:39:03.389Z,18.58
2022-07-27T09:41:41.627Z,19.14
2022-07-27T09:46:57.662Z,19.83
2022-07-27T09:49:32.084Z,19.46
2022-07-27T09:52:02.305Z,19.10
2022-07-27T09:54:44.342Z,18.63
2022-07-27T09:57:12.316Z,18.30
2022-07-27T09:59:40.230Z,18.03
2022-07-27T10:02:08.204Z,17.71
2022-07-27T10:04:37.226Z,17.61
2022-07-27T10:07:08.274Z,17.84
2022-07-27T10:09:37.158Z,18.03
2022-07-27T10:12:05.398Z,18.30
2022-07-27T10:14:33.498Z,18.83
2022-07-27T10:17:02.387Z,19.11
2022-07-27T10:19:35.151Z,19.00
2022-07-27T10:22:04.143Z,18.84
2022-07-27T10:24:34.789Z,19.38
2022-07-27T10:27:19.998Z,20.15
2022-07-27T10:29:48.366Z,20.53
2022-07-27T10:32:24.689Z,20.12
2022-07-27T10:34:52.306Z,19.53
2022-07-27T10:37:27.745Z,19.01
2022-07-27T10:40:16.960Z,19.00
2022-07-27T10:42:49.031Z,19.64
2022-07-27T10:45:21.116Z,20.28
2022-07-27T10:47:50.545Z,20.22
2022-07-27T10:50:30.782Z,19.47
2022-07-27T10:53:03.155Z,19.18
2022-07-27T10:55:47.237Z,18.98
2022-07-27T10:58:46.570Z,18.97
2022-07-27T11:01:15.791Z,19.62
2022-07-27T11:03:49.408Z,19.67
2022-07-27T11:06:33.207Z,19.37
2022-07-27T11:09:53.218Z,18.68
2022-07-27T11:11:53.397Z,18.33
2022-07-27T11:14:30.126Z,18.05
2022-07-27T11:17:07.909Z,18.01
2022-07-27T11:19:52.175Z,18.01
2022-07-27T11:22:50.146Z,17.92
2022-07-27T11:25:19.123Z,17.65
2022-07-27T11:27:48.646Z,17.62
2022-07-27T11:30:22.996Z,17.72
2022-07-27T11:32:50.847Z,17.71
2022-07-27T11:35:20.124Z,17.99
2022-07-27T11:37:59.937Z,18.60
2022-07-27T11:43:33.653Z,18.61
2022-07-27T11:46:12.728Z,18.71
2022-07-27T11:49:05.355Z,18.89
2022-07-27T11:51:34.684Z,19.02
2022-07-27T11:54:04.692Z,18.78
2022-07-27T11:56:35.930Z,19.38
2022-07-27T11:59:07.514Z,19.42
2022-07-27T12:01:37.158Z,19.66
2022-07-27T12:04:13.901Z,18.98
2022-07-27T12:06:43.595Z,18.75
2022-07-27T12:09:15.342Z,18.47
2022-07-27T12:11:59.262Z,18.17
2022-07-27T12:14:38.165Z,18.19
2022-07-27T12:17:26.841Z,18.73
2022-07-27T12:19:59.834Z,18.87
2022-07-27T12:22:33.602Z,18.73
2022-07-27T12:25:05.641Z,18.90
2022-07-27T12:27:39.533Z,18.63
2022-07-27T12:30:10.486Z,18.86
2022-07-27T12:32:41.085Z,18.97
2022-07-27T12:35:18.441Z,18.76
2022-07-27T12:37:46.194Z,18.60
2022-07-27T12:40:19.006Z,18.98
2022-07-27T12:42:56.959Z,19.43
2022-07-27T12:45:24.904Z,20.09
2022-07-27T12:47:52.615Z,20.40
2022-07-27T12:50:29.419Z,19.85
2022-07-27T12:52:56.992Z,20.35
2022-07-27T12:55:25.078Z,20.39
2022-07-27T12:57:56.496Z,19.73
2022-07-27T13:00:32.686Z,19.33
2022-07-27T13:03:01.852Z,19.30
2022-07-27T13:05:29.598Z,19.22
2022-07-27T13:07:57.892Z,18.51
2022-07-27T13:10:25.781Z,18.28
2022-07-27T13:12:54.701Z,18.19
2022-07-27T13:15:22.277Z,18.36
2022-07-27T13:17:50.122Z,18.35
2022-07-27T13:20:18.789Z,18.43
2022-07-27T13:22:47.027Z,18.17
2022-07-27T13:25:17.542Z,18.34
2022-07-27T13:27:45.485Z,18.74
2022-07-27T13:30:16.060Z,18.86
2022-07-27T13:32:44.738Z,18.78
2022-07-27T13:35:13.263Z,18.95
2022-07-27T13:37:42.052Z,19.34
2022-07-27T13:40:10.720Z,19.27
2022-07-27T13:42:38.681Z,19.66
2022-07-27T13:45:10.515Z,19.27
2022-07-27T13:47:41.669Z,19.30
2022-07-27T13:50:17.422Z,19.32
2022-07-27T13:52:46.713Z,19.10
2022-07-27T13:55:15.104Z,18.93
2022-07-27T13:57:43.219Z,18.72
2022-07-27T14:00:12.058Z,18.95
2022-07-27T14:02:41.847Z,18.76
2022-07-27T14:05:13.214Z,18.70
2022-07-27T14:07:41.793Z,18.73
2022-07-27T14:10:28.789Z,18.55
2022-07-27T14:12:59.164Z,18.51
2022-07-27T14:15:27.031Z,18.64
2022-07-27T14:17:56.313Z,18.62
2022-07-27T14:20:24.104Z,18.35
2022-07-27T14:22:52.114Z,18.24
2022-07-27T14:25:19.697Z,17.95
2022-07-27T14:27:47.288Z,17.74
2022-07-27T14:30:20.305Z,17.56
2022-07-27T14:32:48.665Z,17.39
2022-07-27T14:35:17.621Z,17.43
2022-07-27T14:37:45.734Z,17.42
2022-07-27T14:40:14.350Z,17.65
2022-07-27T14:42:41.949Z,17.84
2022-07-27T14:45:10.238Z,17.91
2022-07-27T14:47:37.829Z,18.18
2022-07-27T14:50:08.003Z,18.43
2022-07-27T14:52:37.112Z,18.61
2022-07-27T14:55:05.150Z,18.52
2022-07-27T14:57:33.092Z,18.34
2022-07-27T15:00:01.213Z,18.13
2022-07-27T15:02:28.834Z,18.12
2022-07-27T15:04:56.413Z,17.98
2022-07-27T15:07:24.022Z,18.18
2022-07-27T15:09:52.965Z,18.31
2022-07-27T15:12:20.542Z,18.12
2022-07-27T15:14:48.209Z,18.03
2022-07-27T15:17:16.342Z,18.00
2022-07-27T15:19:44.274Z,17.94
2022-07-27T15:22:12.253Z,17.67
2022-07-27T15:24:39.934Z,17.52
2022-07-27T15:27:09.330Z,17.34
2022-07-27T15:29:37.259Z,17.29
2022-07-27T15:32:04.958Z,17.29
2022-07-27T15:34:32.549Z,17.14
2022-07-27T15:37:00.122Z,17.25
2022-07-27T15:39:27.714Z,17.45
2022-07-27T15:41:55.285Z,17.47
2022-07-27T15:44:24.182Z,17.40
2022-07-27T15:46:51.816Z,17.47
2022-07-27T15:49:19.619Z,17.55
2022-07-27T15:51:48.055Z,17.47
2022-07-27T15:54:15.662Z,17.39
2022-07-27T15:56:43.305Z,17.33
2022-07-27T15:59:11.314Z,17.36
2022-07-27T16:01:40.551Z,17.39
2022-07-27T16:04:09.069Z,17.38
2022-07-27T16:06:39.369Z,17.30
2022-07-27T16:09:09.248Z,17.26
2022-07-27T16:11:37.970Z,17.12
2022-07-27T16:14:05.513Z,16.91
2022-07-27T16:16:33.318Z,16.99
2022-07-27T16:19:12.606Z,16.97
2022-07-27T16:21:53.878Z,17.06
2022-07-27T16:24:23.650Z,17.16
2022-07-27T16:26:51.320Z,17.17
2022-07-27T16:29:19.133Z,17.31
2022-07-27T16:31:46.829Z,17.52
2022-07-27T16:34:15.837Z,17.48
2022-07-27T16:36:43.395Z,17.42
2022-07-27T16:39:11.369Z,17.41
2022-07-27T16:41:39.421Z,17.41
2022-07-27T16:44:07.025Z,17.31
2022-07-27T16:46:34.656Z,17.07
2022-07-27T16:49:02.303Z,16.90
2022-07-27T16:51:31.350Z,16.69
2022-07-27T16:53:58.897Z,16.60
2022-07-27T16:56:26.554Z,16.65
2022-07-27T16:58:54.133Z,16.50
2022-07-27T17:01:26.797Z,16.53
2022-07-27T17:03:55.270Z,16.55
2022-07-27T17:06:23.021Z,16.57
2022-07-27T17:08:52.405Z,16.67
2022-07-27T17:11:20.847Z,16.59
2022-07-27T17:13:50.129Z,16.59
2022-07-27T17:16:18.156Z,16.55
2022-07-27T17:18:45.910Z,16.52
2022-07-27T17:21:13.542Z,16.42
2022-07-27T17:23:41.682Z,16.22
2022-07-27T17:26:12.093Z,16.10
2022-07-27T17:28:40.466Z,16.06
2022-07-27T17:31:09.610Z,16.08
2022-07-27T17:33:37.810Z,16.20
2022-07-27T17:36:08.530Z,16.18
2022-07-27T17:38:41.878Z,16.19
2022-07-27T17:41:10.847Z,16.19
2022-07-27T17:43:39.347Z,16.17
2022-07-27T17:46:07.382Z,16.04
2022-07-27T17:48:35.320Z,15.98
2022-07-27T17:51:03.465Z,15.99
2022-07-27T17:53:31.081Z,15.87
2022-07-27T17:55:58.737Z,15.74
2022-07-27T17:58:30.214Z,15.78
2022-07-27T18:00:58.284Z,15.85
2022-07-27T18:03:25.870Z,15.81
2022-07-27T18:05:53.589Z,15.84
2022-07-27T18:08:21.151Z,15.83
2022-07-27T18:10:51.345Z,15.81
2022-07-27T18:13:18.985Z,15.78
2022-07-27T18:15:48.083Z,15.74
2022-07-27T18:18:16.573Z,15.83
2022-07-27T18:20:46.108Z,15.81
2022-07-27T18:23:14.078Z,15.85
2022-07-27T18:25:41.997Z,15.80
2022-07-27T18:28:09.545Z,15.77
2022-07-27T18:30:37.571Z,15.75
2022-07-27T18:33:06.662Z,15.71
2022-07-27T18:35:34.221Z,15.71
2022-07-27T18:38:01.794Z,15.60
2022-07-27T18:40:29.722Z,15.64
2022-07-27T18:42:57.253Z,15.54
2022-07-27T18:45:34.634Z,15.58
2022-07-27T18:48:02.794Z,15.64
2022-07-27T18:50:35.651Z,15.63
2022-07-27T18:53:06.923Z,15.63
2022-07-27T18:55:34.839Z,15.60
2022-07-27T18:58:02.449Z,15.53
2022-07-27T19:00:30.590Z,15.50
2022-07-27T19:02:58.765Z,15.46
2022-07-27T19:05:31.539Z,15.37
2022-07-27T19:08:11.476Z,15.40
2022-07-27T19:10:41.382Z,15.34
2022-07-27T19:13:11.603Z,15.31
2022-07-27T19:15:40.015Z,15.26
2022-07-27T19:18:08.747Z,15.31
2022-07-27T19:20:37.568Z,15.31
2022-07-27T19:23:05.189Z,15.33
2022-07-27T19:25:34.654Z,15.31
2022-07-27T19:28:02.676Z,15.29
2022-07-27T19:30:30.492Z,15.35
2022-07-27T19:32:58.256Z,15.33
2022-07-27T19:35:25.878Z,15.33
2022-07-27T19:37:53.690Z,15.30
2022-07-27T19:43:11.232Z,15.26
2022-07-27T19:45:38.844Z,15.32
2022-07-27T19:48:08.132Z,15.30
2022-07-27T19:50:35.977Z,15.25
2022-07-27T19:53:03.646Z,15.25
2022-07-27T19:55:31.272Z,15.22
2022-07-27T19:57:58.825Z,15.19
2022-07-27T20:00:27.821Z,15.12
2022-07-27T20:02:55.454Z,15.03
2022-07-27T20:05:23.353Z,15.03
2022-07-27T20:07:51.273Z,15.05
2022-07-27T20:10:21.507Z,15.01
2022-07-27T20:12:49.065Z,14.99
2022-07-27T20:15:16.677Z,15.02
2022-07-27T20:17:45.609Z,15.03
2022-07-27T20:20:13.429Z,15.00
2022-07-27T20:22:42.155Z,14.94
2022-07-27T20:25:11.023Z,14.92
2022-07-27T20:27:39.737Z,14.90
2022-07-27T20:30:08.936Z,14.82
2022-07-27T20:32:36.814Z,14.82
2022-07-27T20:35:06.677Z,14.73
2022-07-27T20:37:34.422Z,14.66
2022-07-27T20:40:02.187Z,14.63
2022-07-27T20:42:29.889Z,14.57
2022-07-27T20:44:57.554Z,14.52
2022-07-27T20:47:25.481Z,14.50
2022-07-27T20:49:53.050Z,14.48
2022-07-27T20:52:22.422Z,14.51
2022-07-27T20:54:50.438Z,14.50
2022-07-27T20:57:18.004Z,14.50
2022-07-27T20:59:45.578Z,14.55
2022-07-27T21:02:13.835Z,14.65
2022-07-27T21:04:41.469Z,14.73
2022-07-27T21:07:09.059Z,14.82
2022-07-27T21:09:38.059Z,14.85
2022-07-27T21:12:08.143Z,14.86
2022-07-27T21:14:35.694Z,14.87
2022-07-27T21:17:03.350Z,14.92
2022-07-27T21:19:30.967Z,14.96
2022-07-27T21:21:58.593Z,14.99
2022-07-27T21:24:26.074Z,14.95
2022-07-27T21:26:55.161Z,14.91
2022-07-27T21:29:25.977Z,14.91
2022-07-27T21:31:53.560Z,14.89
2022-07-27T21:34:21.829Z,14.85
2022-07-27T21:36:50.298Z,14.85
2022-07-27T21:39:18.947Z,14.83
2022-07-27T21:41:46.845Z,14.84
2022-07-27T21:44:16.311Z,14.85
2022-07-27T21:46:44.272Z,14.84
2022-07-27T21:49:13.154Z,14.82
2022-07-27T21:51:40.868Z,14.81
2022-07-27T21:54:08.430Z,14.82
2022-07-27T21:56:40.863Z,14.80
2022-07-27T21:59:10.078Z,14.84
2022-07-27T22:01:39.077Z,14.86
2022-07-27T22:04:07.193Z,14.86
2022-07-27T22:06:35.790Z,14.87
2022-07-27T22:09:03.530Z,14.88
2022-07-27T22:11:31.129Z,14.86
2022-07-27T22:13:58.719Z,14.86
2022-07-27T22:16:26.362Z,14.83
2022-07-27T22:18:56.701Z,14.82
2022-07-27T22:21:24.365Z,14.79
2022-07-27T22:23:52.156Z,14.75
2022-07-27T22:26:20.025Z,14.70
2022-07-27T22:28:47.934Z,14.67
2022-07-27T22:31:22.375Z,14.61
2022-07-27T22:33:51.302Z,14.58
2022-07-27T22:36:20.599Z,14.54
2022-07-27T22:38:48.297Z,14.48
2022-07-27T22:41:16.003Z,14.43
2022-07-27T22:43:43.556Z,14.35
2022-07-27T22:46:11.180Z,14.27
2022-07-27T22:48:39.129Z,14.22
2022-07-27T22:51:07.656Z,14.13
2022-07-27T22:53:38.438Z,14.06
2022-07-27T22:56:06.260Z,14.00
2022-07-27T22:58:33.935Z,13.89
2022-07-27T23:01:01.580Z,13.82
2022-07-27T23:03:29.302Z,13.77
2022-07-27T23:05:56.869Z,13.72
2022-07-27T23:08:24.433Z,13.69
2022-07-27T23:10:53.380Z,13.67
2022-07-27T23:13:22.794Z,13.65
2022-07-27T23:15:50.963Z,13.60
2022-07-27T23:18:18.964Z,13.57
2022-07-27T23:20:46.596Z,13.53
2022-07-27T23:23:16.213Z,13.49
2022-07-27T23:25:44.725Z,13.44
2022-07-27T23:28:13.701Z,13.38
2022-07-27T23:30:41.317Z,13.32
2022-07-27T23:33:08.893Z,13.26
2022-07-27T23:35:36.464Z,13.17
2022-07-27T23:38:04.132Z,13.12
2022-07-27T23:40:31.759Z,13.03
2022-07-27T23:42:59.381Z,12.97
2022-07-27T23:45:28.437Z,12.89
2022-07-27T23:47:56.072Z,12.84
2022-07-27T23:50:24.250Z,12.78
2022-07-27T23:52:51.853Z,12.72
2022-07-27T23:55:19.489Z,12.66
2022-07-27T23:57:47.242Z,12.64
